sensor_id;sensor_type;location;lat;lon;timestamp;pressure;altitude;pressure_sealevel;temperature;humidity
53689;BME280;39583;54.682;30.662;2023-05-25T06:34:08;99722.03;;;21.89;53.45
53689;BME280;39583;54.682;30.662;2023-05-25T06:36:35;99724.00;;;22.12;53.12
53689;BME280;39583;54.682;30.662;2023-05-25T06:39:02;99717.50;;;22.32;52.70
53689;BME280;39583;54.682;30.662;2023-05-25T06:41:28;99719.25;;;22.47;51.80
53689;BME280;39583;54.682;30.662;2023-05-25T06:43:55;99713.97;;;22.55;51.29
53689;BME280;39583;54.682;30.662;2023-05-25T06:46:28;99717.41;;;22.66;50.57
53689;BME280;39583;54.682;30.662;2023-05-25T06:48:58;99716.44;;;22.76;50.52
53689;BME280;39583;54.682;30.662;2023-05-25T06:51:24;99713.59;;;22.86;50.02
53689;BME280;39583;54.682;30.662;2023-05-25T06:53:53;99710.03;;;22.85;49.52
53689;BME280;39583;54.682;30.662;2023-05-25T06:56:20;99719.09;;;22.86;49.14
53689;BME280;39583;54.682;30.662;2023-05-25T06:58:51;99721.50;;;22.92;48.34
53689;BME280;39583;54.682;30.662;2023-05-25T07:01:23;99712.56;;;23.01;48.37
53689;BME280;39583;54.682;30.662;2023-05-25T07:03:52;99707.41;;;23.18;47.82
53689;BME280;39583;54.682;30.662;2023-05-25T07:06:21;99706.72;;;23.26;47.52
53689;BME280;39583;54.682;30.662;2023-05-25T07:08:51;99712.41;;;23.30;47.65
53689;BME280;39583;54.682;30.662;2023-05-25T07:11:17;99706.28;;;23.19;46.67
53689;BME280;39583;54.682;30.662;2023-05-25T11:13:48;99611.09;;;27.74;30.65
53689;BME280;39583;54.682;30.662;2023-05-25T11:18:57;99610.44;;;28.15;29.86
53689;BME280;39583;54.682;30.662;2023-05-25T11:23:59;99611.84;;;27.92;29.79
53689;BME280;39583;54.682;30.662;2023-05-25T11:26:29;99612.69;;;27.84;29.72
53689;BME280;39583;54.682;30.662;2023-05-25T11:28:56;99611.41;;;27.81;30.27
53689;BME280;39583;54.682;30.662;2023-05-25T11:31:28;99601.22;;;27.65;30.28
53689;BME280;39583;54.682;30.662;2023-05-25T11:34:02;99604.28;;;27.54;30.24
53689;BME280;39583;54.682;30.662;2023-05-25T11:36:34;99599.09;;;27.53;30.46
53689;BME280;39583;54.682;30.662;2023-05-25T11:39:02;99590.97;;;27.48;30.49
53689;BME280;39583;54.682;30.662;2023-05-25T11:41:31;99603.53;;;27.28;30.94
53689;BME280;39583;54.682;30.662;2023-05-25T11:44:06;99601.25;;;27.30;31.07
53689;BME280;39583;54.682;30.662;2023-05-25T11:46:32;99588.81;;;27.62;30.82
53689;BME280;39583;54.682;30.662;2023-05-25T11:48:59;99589.78;;;27.75;30.59
53689;BME280;39583;54.682;30.662;2023-05-25T11:51:27;99579.38;;;27.63;30.56
53689;BME280;39583;54.682;30.662;2023-05-25T11:53:53;99562.63;;;27.68;30.15
53689;BME280;39583;54.682;30.662;2023-05-25T11:56:20;99586.16;;;27.83;30.08
53689;BME280;39583;54.682;30.662;2023-05-25T11:58:48;99572.38;;;27.74;29.44
53689;BME280;39583;54.682;30.662;2023-05-25T12:01:15;99574.41;;;27.86;29.45
53689;BME280;39583;54.682;30.662;2023-05-25T12:03:42;99570.97;;;27.98;28.89
53689;BME280;39583;54.682;30.662;2023-05-25T12:06:08;99574.81;;;28.14;28.98
53689;BME280;39583;54.682;30.662;2023-05-25T12:08:34;99571.63;;;28.33;27.84
53689;BME280;39583;54.682;30.662;2023-05-25T12:11:01;99566.13;;;28.54;28.12
53689;BME280;39583;54.682;30.662;2023-05-25T12:13:29;99574.00;;;28.64;27.86
53689;BME280;39583;54.682;30.662;2023-05-25T12:15:56;99567.19;;;29.03;28.06
53689;BME280;39583;54.682;30.662;2023-05-25T12:18:26;99532.09;;;28.86;27.45
53689;BME280;39583;54.682;30.662;2023-05-25T12:20:55;99570.59;;;29.08;27.13
53689;BME280;39583;54.682;30.662;2023-05-25T12:23:21;99575.88;;;29.34;27.42
53689;BME280;39583;54.682;30.662;2023-05-25T12:25:47;99572.06;;;29.39;26.85
53689;BME280;39583;54.682;30.662;2023-05-25T12:28:14;99563.16;;;29.33;26.82
53689;BME280;39583;54.682;30.662;2023-05-25T12:30:40;99566.34;;;29.23;26.98
53689;BME280;39583;54.682;30.662;2023-05-25T12:33:06;99561.78;;;29.06;27.14
53689;BME280;39583;54.682;30.662;2023-05-25T12:35:46;99561.38;;;28.75;27.80
53689;BME280;39583;54.682;30.662;2023-05-25T12:38:14;99561.47;;;28.66;27.65
53689;BME280;39583;54.682;30.662;2023-05-25T12:40:40;99558.63;;;28.54;28.10
53689;BME280;39583;54.682;30.662;2023-05-25T12:43:06;99547.44;;;28.63;28.60
53689;BME280;39583;54.682;30.662;2023-05-25T12:45:32;99551.50;;;28.86;28.14
53689;BME280;39583;54.682;30.662;2023-05-25T12:47:58;99554.50;;;28.81;27.39
53689;BME280;39583;54.682;30.662;2023-05-25T12:50:24;99557.31;;;28.72;27.09
53689;BME280;39583;54.682;30.662;2023-05-25T12:52:50;99546.19;;;28.60;27.31
53689;BME280;39583;54.682;30.662;2023-05-25T12:55:23;99544.09;;;28.78;27.30
53689;BME280;39583;54.682;30.662;2023-05-25T12:57:53;99535.19;;;28.93;26.59
53689;BME280;39583;54.682;30.662;2023-05-25T13:00:24;99538.59;;;29.11;26.67
53689;BME280;39583;54.682;30.662;2023-05-25T13:02:51;99541.78;;;28.80;26.86
53689;BME280;39583;54.682;30.662;2023-05-25T13:05:22;99538.38;;;28.33;26.42
53689;BME280;39583;54.682;30.662;2023-05-25T13:07:49;99534.00;;;28.02;27.26
53689;BME280;39583;54.682;30.662;2023-05-25T13:10:16;99527.81;;;27.58;28.00
53689;BME280;39583;54.682;30.662;2023-05-25T13:12:46;99526.38;;;27.52;27.60
53689;BME280;39583;54.682;30.662;2023-05-25T13:15:14;99530.81;;;27.83;27.32
53689;BME280;39583;54.682;30.662;2023-05-25T13:17:41;99523.53;;;28.08;27.10
53689;BME280;39583;54.682;30.662;2023-05-25T13:20:16;99519.53;;;28.26;26.30
53689;BME280;39583;54.682;30.662;2023-05-25T13:22:44;99514.22;;;28.12;26.58
53689;BME280;39583;54.682;30.662;2023-05-25T13:25:12;99517.78;;;27.83;26.80
53689;BME280;39583;54.682;30.662;2023-05-25T13:27:48;99512.41;;;27.49;27.10
53689;BME280;39583;54.682;30.662;2023-05-25T13:30:18;99511.28;;;27.32;27.48
53689;BME280;39583;54.682;30.662;2023-05-25T13:32:48;99511.16;;;27.29;28.31
53689;BME280;39583;54.682;30.662;2023-05-25T13:35:19;99511.63;;;27.40;28.99
53689;BME280;39583;54.682;30.662;2023-05-25T13:38:23;99508.28;;;27.55;28.46
53689;BME280;39583;54.682;30.662;2023-05-25T13:40:49;99502.91;;;27.67;28.43
53689;BME280;39583;54.682;30.662;2023-05-25T13:43:15;99500.31;;;28.00;28.00
53689;BME280;39583;54.682;30.662;2023-05-25T13:45:41;99502.38;;;28.33;27.52
53689;BME280;39583;54.682;30.662;2023-05-25T13:48:07;99505.03;;;28.50;27.86
53689;BME280;39583;54.682;30.662;2023-05-25T13:50:33;99506.91;;;28.58;27.32
53689;BME280;39583;54.682;30.662;2023-05-25T13:52:59;99497.94;;;28.61;27.21
53689;BME280;39583;54.682;30.662;2023-05-25T13:55:25;99499.41;;;28.79;26.93
53689;BME280;39583;54.682;30.662;2023-05-25T13:57:51;99495.69;;;28.96;27.01
53689;BME280;39583;54.682;30.662;2023-05-25T14:00:17;99493.75;;;29.09;27.08
53689;BME280;39583;54.682;30.662;2023-05-25T14:02:43;99487.81;;;29.31;26.71
53689;BME280;39583;54.682;30.662;2023-05-25T14:05:09;99479.84;;;29.30;26.96
53689;BME280;39583;54.682;30.662;2023-05-25T14:07:35;99481.19;;;29.12;26.64
53689;BME280;39583;54.682;30.662;2023-05-25T14:10:02;99476.25;;;29.42;26.93
53689;BME280;39583;54.682;30.662;2023-05-25T14:12:28;99477.13;;;29.66;26.30
53689;BME280;39583;54.682;30.662;2023-05-25T14:14:54;99473.97;;;29.56;26.36
53689;BME280;39583;54.682;30.662;2023-05-25T14:17:20;99476.81;;;28.90;26.86
53689;BME280;39583;54.682;30.662;2023-05-25T14:19:46;99475.16;;;28.35;27.18
53689;BME280;39583;54.682;30.662;2023-05-25T14:22:12;99475.31;;;27.88;28.05
53689;BME280;39583;54.682;30.662;2023-05-25T14:24:38;99476.94;;;27.51;28.50
53689;BME280;39583;54.682;30.662;2023-05-25T14:27:04;99478.22;;;27.53;28.68
53689;BME280;39583;54.682;30.662;2023-05-25T14:29:31;99474.16;;;27.89;28.19
53689;BME280;39583;54.682;30.662;2023-05-25T14:31:57;99482.13;;;28.11;27.98
53689;BME280;39583;54.682;30.662;2023-05-25T14:34:23;99487.91;;;27.77;28.08
53689;BME280;39583;54.682;30.662;2023-05-25T14:36:49;99485.78;;;27.27;28.85
53689;BME280;39583;54.682;30.662;2023-05-25T14:39:15;99485.34;;;26.90;29.50
53689;BME280;39583;54.682;30.662;2023-05-25T14:41:41;99482.00;;;26.59;30.34
53689;BME280;39583;54.682;30.662;2023-05-25T14:44:07;99481.47;;;26.31;30.39
53689;BME280;39583;54.682;30.662;2023-05-25T14:46:34;99475.09;;;26.13;30.77
53689;BME280;39583;54.682;30.662;2023-05-25T14:49:00;99471.34;;;26.00;30.79
53689;BME280;39583;54.682;30.662;2023-05-25T14:51:26;99477.97;;;25.82;31.01
53689;BME280;39583;54.682;30.662;2023-05-25T14:53:52;99471.94;;;25.71;31.33
53689;BME280;39583;54.682;30.662;2023-05-25T14:56:19;99461.47;;;25.59;31.30
53689;BME280;39583;54.682;30.662;2023-05-25T14:58:46;99470.09;;;25.67;31.31
53689;BME280;39583;54.682;30.662;2023-05-25T15:01:12;99475.06;;;25.96;31.26
53689;BME280;39583;54.682;30.662;2023-05-25T15:03:38;99468.13;;;26.15;30.83
53689;BME280;39583;54.682;30.662;2023-05-25T15:06:04;99474.66;;;26.37;31.00
53689;BME280;39583;54.682;30.662;2023-05-25T15:08:30;99469.94;;;26.55;30.57
53689;BME280;39583;54.682;30.662;2023-05-25T15:10:56;99468.00;;;26.64;30.08
53689;BME280;39583;54.682;30.662;2023-05-25T15:13:22;99473.81;;;26.80;30.13
53689;BME280;39583;54.682;30.662;2023-05-25T15:15:48;99464.72;;;26.88;29.97
53689;BME280;39583;54.682;30.662;2023-05-25T15:18:19;99469.28;;;27.01;30.48
53689;BME280;39583;54.682;30.662;2023-05-25T15:20:45;99471.50;;;27.16;30.44
53689;BME280;39583;54.682;30.662;2023-05-25T15:23:12;99466.59;;;27.30;29.97
53689;BME280;39583;54.682;30.662;2023-05-25T15:25:38;99472.44;;;27.38;29.86
53689;BME280;39583;54.682;30.662;2023-05-25T15:28:04;99470.88;;;27.66;29.82
53689;BME280;39583;54.682;30.662;2023-05-25T15:30:32;99470.34;;;28.23;28.73
53689;BME280;39583;54.682;30.662;2023-05-25T15:32:59;99466.28;;;29.16;27.66
53689;BME280;39583;54.682;30.662;2023-05-25T15:35:26;99455.34;;;29.93;26.88
53689;BME280;39583;54.682;30.662;2023-05-25T15:37:57;99460.34;;;30.52;26.24
53689;BME280;39583;54.682;30.662;2023-05-25T15:40:23;99465.38;;;31.02;25.81
53689;BME280;39583;54.682;30.662;2023-05-25T15:42:49;99465.78;;;31.48;25.45
53689;BME280;39583;54.682;30.662;2023-05-25T15:45:15;99471.81;;;31.82;24.82
53689;BME280;39583;54.682;30.662;2023-05-25T15:47:41;99461.63;;;31.89;24.56
53689;BME280;39583;54.682;30.662;2023-05-25T15:50:07;99464.22;;;31.98;24.17
53689;BME280;39583;54.682;30.662;2023-05-25T15:52:33;99453.56;;;32.19;23.95
53689;BME280;39583;54.682;30.662;2023-05-25T15:55:00;99461.63;;;32.60;23.78
53689;BME280;39583;54.682;30.662;2023-05-25T15:57:26;99459.03;;;32.90;23.30
53689;BME280;39583;54.682;30.662;2023-05-25T15:59:52;99459.06;;;33.12;23.40
53689;BME280;39583;54.682;30.662;2023-05-25T16:02:19;99464.91;;;33.27;23.11
53689;BME280;39583;54.682;30.662;2023-05-25T16:04:45;99459.72;;;33.25;22.95
53689;BME280;39583;54.682;30.662;2023-05-25T16:07:11;99453.81;;;33.53;22.49
53689;BME280;39583;54.682;30.662;2023-05-25T16:09:38;99454.09;;;33.94;22.47
53689;BME280;39583;54.682;30.662;2023-05-25T16:12:04;99451.88;;;34.07;21.92
53689;BME280;39583;54.682;30.662;2023-05-25T16:14:31;99459.63;;;34.17;22.06
53689;BME280;39583;54.682;30.662;2023-05-25T16:16:57;99451.38;;;34.27;21.88
53689;BME280;39583;54.682;30.662;2023-05-25T16:19:23;99446.44;;;34.17;21.86
53689;BME280;39583;54.682;30.662;2023-05-25T16:21:49;99447.91;;;34.08;21.74
53689;BME280;39583;54.682;30.662;2023-05-25T16:24:15;99449.31;;;33.94;21.80
53689;BME280;39583;54.682;30.662;2023-05-25T16:26:41;99451.19;;;34.13;21.67
53689;BME280;39583;54.682;30.662;2023-05-25T16:29:07;99446.03;;;34.45;21.56
53689;BME280;39583;54.682;30.662;2023-05-25T16:31:32;99448.22;;;34.93;20.69
53689;BME280;39583;54.682;30.662;2023-05-25T16:33:59;62827.63;;;-144.82;100.00
53689;BME280;39583;54.682;30.662;2023-05-25T16:36:27;62827.63;;;-144.82;100.00
53689;BME280;39583;54.682;30.662;2023-05-25T16:38:53;62827.63;;;-144.82;100.00
53689;BME280;39583;54.682;30.662;2023-05-25T16:41:19;62827.63;;;-144.82;100.00
53689;BME280;39583;54.682;30.662;2023-05-25T16:43:45;62827.63;;;-144.82;100.00
53689;BME280;39583;54.682;30.662;2023-05-25T16:46:11;62827.63;;;-144.82;100.00
53689;BME280;39583;54.682;30.662;2023-05-25T16:48:37;62827.63;;;-144.82;100.00
53689;BME280;39583;54.682;30.662;2023-05-25T16:51:03;62827.63;;;-144.82;100.00
53689;BME280;39583;54.682;30.662;2023-05-25T16:53:29;62827.63;;;-144.82;100.00
53689;BME280;39583;54.682;30.662;2023-05-25T16:55:54;62827.63;;;-144.82;100.00
53689;BME280;39583;54.682;30.662;2023-05-25T16:58:20;62827.63;;;-144.82;100.00
53689;BME280;39583;54.682;30.662;2023-05-25T17:00:49;62827.63;;;-144.82;100.00
53689;BME280;39583;54.682;30.662;2023-05-25T17:03:15;62827.63;;;-144.82;100.00
53689;BME280;39583;54.682;30.662;2023-05-25T17:05:41;62827.63;;;-144.82;100.00
53689;BME280;39583;54.682;30.662;2023-05-25T17:08:07;62827.63;;;-144.82;100.00
53689;BME280;39583;54.682;30.662;2023-05-25T17:10:33;62827.63;;;-144.82;100.00
53689;BME280;39583;54.682;30.662;2023-05-25T17:12:59;62827.63;;;-144.82;100.00
53689;BME280;39583;54.682;30.662;2023-05-25T17:15:26;62827.63;;;-144.82;100.00
53689;BME280;39583;54.682;30.662;2023-05-25T17:17:52;62827.63;;;-144.82;100.00
53689;BME280;39583;54.682;30.662;2023-05-25T17:20:18;62827.63;;;-144.82;100.00
53689;BME280;39583;54.682;30.662;2023-05-25T17:22:44;62827.63;;;-144.82;100.00
53689;BME280;39583;54.682;30.662;2023-05-25T17:25:10;62827.63;;;-144.82;100.00
53689;BME280;39583;54.682;30.662;2023-05-25T17:27:36;99448.22;;;34.93;20.69
53689;BME280;39583;54.682;30.662;2023-05-25T17:30:03;99470.63;;;23.16;42.72
53689;BME280;39583;54.682;30.662;2023-05-25T17:32:30;99472.03;;;22.67;43.79
53689;BME280;39583;54.682;30.662;2023-05-25T17:34:56;99476.22;;;22.27;44.57
53689;BME280;39583;54.682;30.662;2023-05-25T17:37:22;99482.47;;;21.85;45.57
53689;BME280;39583;54.682;30.662;2023-05-25T17:39:48;99481.88;;;21.45;46.63
53689;BME280;39583;54.682;30.662;2023-05-25T17:42:14;99481.88;;;21.16;46.97
53689;BME280;39583;54.682;30.662;2023-05-25T17:44:41;99484.41;;;21.07;47.38
53689;BME280;39583;54.682;30.662;2023-05-25T17:47:07;99487.63;;;21.14;47.19
53689;BME280;39583;54.682;30.662;2023-05-25T17:49:33;99484.41;;;21.07;47.42
53689;BME280;39583;54.682;30.662;2023-05-25T17:51:59;99485.84;;;20.71;47.87
53689;BME280;39583;54.682;30.662;2023-05-25T17:54:25;99494.31;;;20.25;48.76
53689;BME280;39583;54.682;30.662;2023-05-25T17:56:52;99501.38;;;19.82;50.01
53689;BME280;39583;54.682;30.662;2023-05-25T17:59:18;99501.19;;;19.48;50.59
53689;BME280;39583;54.682;30.662;2023-05-25T18:01:44;99503.97;;;19.22;51.63
53689;BME280;39583;54.682;30.662;2023-05-25T18:04:10;99502.06;;;18.97;52.40
53689;BME280;39583;54.682;30.662;2023-05-25T18:06:36;99504.81;;;18.72;53.05
53689;BME280;39583;54.682;30.662;2023-05-25T18:09:02;99508.28;;;18.47;53.41
53689;BME280;39583;54.682;30.662;2023-05-25T18:11:29;99505.50;;;18.21;53.88
53689;BME280;39583;54.682;30.662;2023-05-25T18:14:02;99512.81;;;18.01;54.89
53689;BME280;39583;54.682;30.662;2023-05-25T18:16:30;99509.19;;;17.80;55.21
53689;BME280;39583;54.682;30.662;2023-05-25T18:18:56;99517.25;;;17.64;55.67
53689;BME280;39583;54.682;30.662;2023-05-25T18:21:22;99514.47;;;17.54;56.05
53689;BME280;39583;54.682;30.662;2023-05-25T18:23:48;99521.19;;;17.42;56.74
53689;BME280;39583;54.682;30.662;2023-05-25T18:26:14;99514.84;;;17.26;57.03
53689;BME280;39583;54.682;30.662;2023-05-25T18:28:40;99519.09;;;17.12;57.61
53689;BME280;39583;54.682;30.662;2023-05-25T18:31:06;99517.66;;;16.99;58.03
53689;BME280;39583;54.682;30.662;2023-05-25T18:33:33;99517.28;;;16.85;58.58
53689;BME280;39583;54.682;30.662;2023-05-25T18:35:59;99523.69;;;16.74;58.99
53689;BME280;39583;54.682;30.662;2023-05-25T18:38:25;99520.59;;;16.65;59.43
53689;BME280;39583;54.682;30.662;2023-05-25T18:40:51;99520.84;;;16.64;59.76
53689;BME280;39583;54.682;30.662;2023-05-25T18:43:18;99521.13;;;16.62;59.75
53689;BME280;39583;54.682;30.662;2023-05-25T18:45:44;99527.63;;;16.61;59.92
53689;BME280;39583;54.682;30.662;2023-05-25T18:48:11;99523.56;;;16.64;59.98
53689;BME280;39583;54.682;30.662;2023-05-25T18:50:37;99533.38;;;16.65;60.05
53689;BME280;39583;54.682;30.662;2023-05-25T18:53:04;99529.00;;;16.64;60.14
53689;BME280;39583;54.682;30.662;2023-05-25T18:55:32;99530.06;;;16.58;60.09
53689;BME280;39583;54.682;30.662;2023-05-25T18:57:58;99533.53;;;16.53;60.33
53689;BME280;39583;54.682;30.662;2023-05-25T19:00:25;99512.72;;;16.37;60.53
53689;BME280;39583;54.682;30.662;2023-05-25T19:02:51;99528.56;;;16.45;60.78
